Time;durP1;ratioP1;P1;durP2;ratioP2;P2;SDS_P1;SDS_P2;PMS_P1;PMS_P2;Temp;Humidity;BMP_temperature;BMP_pressure;BME280_temperature;BME280_humidity;BME280_pressure;Samples;Min_cycle;Max_cycle;Signal;HPM_P1;HPM_P2
2022/05/17 00:00:20;;;;;;;429.10;410.80;;;12.50;99.90;;;;;;5018414;28;20655;-81
2022/05/17 00:02:51;;;;;;;522.17;498.63;;;12.40;99.90;;;;;;5018691;28;20518;-84
2022/05/17 00:05:27;;;;;;;488.57;467.60;;;12.40;99.90;;;;;;5019249;28;20545;-82
2022/05/17 00:07:54;;;;;;;466.30;447.10;;;12.30;99.90;;;;;;5018664;28;20480;-83
2022/05/17 00:10:22;;;;;;;556.70;531.93;;;12.30;99.90;;;;;;5017483;28;20453;-81
2022/05/17 00:12:48;;;;;;;534.73;511.23;;;12.10;99.90;;;;;;5018407;28;20449;-82
2022/05/17 00:15:16;;;;;;;582.37;555.73;;;12.10;99.90;;;;;;5018236;28;20460;-82
2022/05/17 00:17:44;;;;;;;619.73;590.63;;;12.00;99.90;;;;;;5018081;28;20532;-81
2022/05/17 00:20:16;;;;;;;621.53;591.70;;;12.00;99.90;;;;;;5017825;28;20496;-82
2022/05/17 00:22:44;;;;;;;568.23;542.00;;;12.10;99.90;;;;;;5018446;28;20536;-81
2022/05/17 00:25:14;;;;;;;560.73;536.17;;;11.90;99.90;;;;;;5018129;28;20477;-81
2022/05/17 00:27:40;;;;;;;493.17;472.27;;;12.00;99.90;;;;;;5018205;28;20449;-82
2022/05/17 00:30:09;;;;;;;586.87;560.63;;;11.80;99.90;;;;;;5017604;28;20552;-82
2022/05/17 00:32:36;;;;;;;534.77;512.23;;;11.80;99.90;;;;;;5018265;28;20473;-81
2022/05/17 00:35:08;;;;;;;509.93;488.90;;;11.80;99.90;;;;;;5017877;28;20481;-81
2022/05/17 00:37:36;;;;;;;524.10;502.60;;;11.70;99.90;;;;;;5017383;28;20462;-81
2022/05/17 00:40:04;;;;;;;509.27;488.57;;;11.60;99.90;;;;;;5017567;28;20508;-81
2022/05/17 00:42:31;;;;;;;547.67;524.77;;;11.60;99.90;;;;;;5017304;28;20890;-81
2022/05/17 00:44:58;;;;;;;617.30;589.57;;;11.60;99.90;;;;;;5017533;28;20473;-83
2022/05/17 00:47:29;;;;;;;669.80;637.50;;;11.60;99.90;;;;;;5017819;28;20457;-81
2022/05/17 00:50:00;;;;;;;667.70;635.17;;;11.70;99.90;;;;;;5016525;28;20950;-82
2022/05/17 00:52:31;;;;;;;642.60;612.07;;;11.70;99.90;;;;;;5017185;28;20472;-82
2022/05/17 00:55:04;;;;;;;672.27;638.20;;;11.80;99.90;;;;;;5017300;28;20489;-81
2022/05/17 00:57:36;;;;;;;619.30;589.40;;;12.00;99.90;;;;;;5016441;28;20461;-82
2022/05/17 01:00:07;;;;;;;582.00;555.03;;;12.00;99.90;;;;;;5017349;28;20457;-82
2022/05/17 01:02:33;;;;;;;571.20;544.60;;;11.90;99.90;;;;;;5017011;28;20449;-82
2022/05/17 01:05:02;;;;;;;661.03;627.37;;;11.80;99.90;;;;;;5017697;28;20473;-81
2022/05/17 01:07:38;;;;;;;588.20;561.00;;;11.90;99.90;;;;;;5017254;28;20468;-81
2022/05/17 01:10:08;;;;;;;666.50;632.90;;;11.70;99.90;;;;;;5016847;28;20531;-81
2022/05/17 01:12:35;;;;;;;593.23;565.93;;;11.80;99.90;;;;;;5016963;28;20484;-81
2022/05/17 01:15:01;;;;;;;589.73;563.77;;;11.60;99.90;;;;;;5016878;28;20477;-82
2022/05/17 01:17:32;;;;;;;586.63;560.83;;;11.60;99.90;;;;;;5017424;28;20490;-81
2022/05/17 01:19:59;;;;;;;674.30;641.87;;;11.40;99.90;;;;;;5016507;28;20477;-81
2022/05/17 01:22:27;;;;;;;700.93;666.10;;;11.30;99.90;;;;;;5016980;28;20453;-81
2022/05/17 01:24:54;;;;;;;742.00;701.40;;;11.30;99.90;;;;;;5016582;28;20495;-82
2022/05/17 01:27:26;;;;;;;798.70;752.50;;;11.30;99.90;;;;;;5016895;28;20504;-81
2022/05/17 01:29:54;;;;;;;776.07;731.10;;;11.40;99.90;;;;;;5016226;28;20453;-82
2022/05/17 01:32:22;;;;;;;775.50;730.30;;;11.30;99.90;;;;;;5016343;28;20962;-81
2022/05/17 01:34:49;;;;;;;805.50;757.93;;;11.40;99.90;;;;;;5016070;28;20473;-81
2022/05/17 01:37:17;;;;;;;797.80;751.40;;;11.30;99.90;;;;;;5016404;28;20453;-81
2022/05/17 01:39:46;;;;;;;844.50;793.43;;;11.30;99.90;;;;;;5015600;28;20468;-81
2022/05/17 01:42:13;;;;;;;834.93;784.17;;;11.30;99.90;;;;;;5016607;28;20459;-81
2022/05/17 01:44:43;;;;;;;830.03;779.77;;;11.20;99.90;;;;;;5016358;28;20472;-82
2022/05/17 01:47:12;;;;;;;848.90;797.40;;;11.10;99.90;;;;;;5016342;28;20457;-82
2022/05/17 01:49:38;;;;;;;841.63;790.33;;;11.10;99.90;;;;;;5016168;28;20488;-81
2022/05/17 01:52:06;;;;;;;818.77;768.93;;;11.20;99.90;;;;;;5016448;28;20477;-83
2022/05/17 01:54:33;;;;;;;809.37;760.90;;;11.10;99.90;;;;;;5016072;28;20484;-81
2022/05/17 01:57:01;;;;;;;802.67;754.93;;;11.10;99.90;;;;;;5015696;28;20830;-83
2022/05/17 01:59:28;;;;;;;825.00;776.47;;;11.10;99.90;;;;;;5016386;28;20453;-81
2022/05/17 02:01:55;;;;;;;825.17;776.57;;;11.10;99.90;;;;;;5016488;28;20456;-81
2022/05/17 02:04:21;;;;;;;831.50;780.27;;;11.10;99.90;;;;;;5015833;28;20476;-81
2022/05/17 02:06:48;;;;;;;842.00;789.80;;;10.90;99.90;;;;;;5016251;28;20461;-81
2022/05/17 02:09:15;;;;;;;851.23;798.23;;;10.90;99.90;;;;;;5015607;28;20456;-82
2022/05/17 02:11:41;;;;;;;825.47;774.40;;;11.00;99.90;;;;;;5016386;28;20857;-81
2022/05/17 02:14:10;;;;;;;798.70;749.70;;;11.00;99.90;;;;;;5016453;28;20473;-82
2022/05/17 02:16:38;;;;;;;802.87;754.60;;;11.00;99.90;;;;;;5016832;28;20460;-81
2022/05/17 02:19:06;;;;;;;816.20;766.70;;;10.80;99.90;;;;;;5015105;28;20465;-81
2022/05/17 02:21:33;;;;;;;824.47;774.30;;;11.00;99.90;;;;;;5015859;28;20453;-82
2022/05/17 02:24:00;;;;;;;822.77;772.23;;;11.00;99.90;;;;;;5015655;28;20484;-82
2022/05/17 02:26:27;;;;;;;827.43;776.50;;;10.90;99.90;;;;;;5016458;28;20459;-81
2022/05/17 02:28:53;;;;;;;832.93;782.37;;;10.90;99.90;;;;;;5016071;28;20457;-81
2022/05/17 02:31:21;;;;;;;847.43;794.77;;;10.80;99.90;;;;;;5016406;28;20970;-81
2022/05/17 02:33:48;;;;;;;856.90;803.40;;;10.90;99.90;;;;;;5015084;28;20845;-81
2022/05/17 02:36:15;;;;;;;861.03;806.70;;;11.00;99.90;;;;;;5016149;28;20457;-81
2022/05/17 02:38:43;;;;;;;872.50;818.10;;;10.90;99.90;;;;;;5015364;28;20464;-82
2022/05/17 02:41:10;;;;;;;859.73;807.67;;;10.80;99.90;;;;;;5016151;28;20453;-81
2022/05/17 02:43:37;;;;;;;868.87;813.30;;;10.70;99.90;;;;;;5015841;28;20476;-81
2022/05/17 02:46:04;;;;;;;867.97;810.17;;;10.70;99.90;;;;;;5016134;28;20453;-81
2022/05/17 02:48:32;;;;;;;885.37;825.20;;;10.70;99.90;;;;;;5015238;28;20897;-81
2022/05/17 02:51:08;;;;;;;881.43;821.10;;;10.70;99.90;;;;;;5016291;28;20457;-81
2022/05/17 02:53:34;;;;;;;898.60;837.70;;;10.70;99.90;;;;;;5015680;28;20951;-82
2022/05/17 02:56:01;;;;;;;915.60;852.70;;;10.70;99.90;;;;;;5015542;28;20453;-81
2022/05/17 02:58:28;;;;;;;897.73;836.60;;;10.70;99.90;;;;;;5014891;28;20958;-81
2022/05/17 03:00:55;;;;;;;900.77;839.00;;;10.80;99.90;;;;;;5019862;28;20460;-83
2022/05/17 03:03:21;;;;;;;913.83;850.93;;;10.80;99.90;;;;;;5020330;28;20479;-82
2022/05/17 03:05:50;;;;;;;907.37;843.33;;;10.80;99.90;;;;;;5019721;28;20467;-81
2022/05/17 03:08:16;;;;;;;880.27;819.53;;;10.90;99.90;;;;;;5019165;28;20453;-80
2022/05/17 03:10:43;;;;;;;890.97;830.70;;;10.90;99.90;;;;;;5019895;28;20479;-81
2022/05/17 03:13:11;;;;;;;884.30;824.00;;;10.90;99.90;;;;;;5019359;28;20496;-81
2022/05/17 03:15:38;;;;;;;837.77;784.27;;;10.90;99.90;;;;;;5019807;28;20456;-81
2022/05/17 03:18:05;;;;;;;834.20;782.63;;;10.90;99.90;;;;;;5019291;28;20463;-86
2022/05/17 03:20:32;;;;;;;815.87;766.40;;;11.00;99.90;;;;;;5019583;28;20453;-81
2022/05/17 03:23:00;;;;;;;833.83;783.73;;;10.80;99.90;;;;;;5020491;28;20838;-82
2022/05/17 03:25:27;;;;;;;846.57;793.90;;;10.90;99.90;;;;;;5019233;28;20964;-81
2022/05/17 03:27:54;;;;;;;843.83;791.37;;;10.90;99.90;;;;;;5019000;28;20453;-81
2022/05/17 03:30:22;;;;;;;871.40;814.73;;;11.00;99.90;;;;;;5018590;28;20499;-81
2022/05/17 03:32:51;;;;;;;863.63;807.03;;;11.00;99.90;;;;;;5019522;28;20480;-81
2022/05/17 03:35:18;;;;;;;868.53;811.93;;;11.00;99.90;;;;;;5020390;28;20460;-81
2022/05/17 03:37:45;;;;;;;871.27;814.17;;;11.10;99.90;;;;;;5020120;28;20452;-82
2022/05/17 03:40:13;;;;;;;856.27;800.17;;;11.30;99.90;;;;;;5019690;28;20457;-82
2022/05/17 03:42:41;;;;;;;864.03;807.97;;;11.20;99.90;;;;;;5019422;28;20457;-81
2022/05/17 03:45:12;;;;;;;775.90;729.27;;;11.30;99.90;;;;;;5019180;28;20484;-81
2022/05/17 03:47:39;;;;;;;757.70;715.10;;;11.40;99.90;;;;;;5020565;28;20456;-82
2022/05/17 03:50:07;;;;;;;798.83;752.93;;;11.40;99.90;;;;;;5019539;28;20469;-83
2022/05/17 03:52:34;;;;;;;781.57;736.53;;;11.60;99.90;;;;;;5019917;28;20830;-82
2022/05/17 03:55:03;;;;;;;715.77;677.57;;;11.80;99.90;;;;;;5019841;28;20485;-81
2022/05/17 03:57:31;;;;;;;663.27;630.90;;;11.80;99.90;;;;;;5018897;28;20468;-81
2022/05/17 03:59:58;;;;;;;690.80;656.47;;;11.90;99.90;;;;;;5019985;28;20463;-82
2022/05/17 04:02:25;;;;;;;677.10;643.03;;;12.00;99.90;;;;;;5020277;28;20475;-82
2022/05/17 04:04:53;;;;;;;663.17;630.20;;;12.10;99.90;;;;;;5018870;28;20864;-83
2022/05/17 04:07:19;;;;;;;610.63;581.03;;;12.20;99.90;;;;;;5019049;28;20454;-82
2022/05/17 04:09:46;;;;;;;593.73;565.17;;;12.40;99.90;;;;;;5018350;28;20839;-82
2022/05/17 04:12:15;;;;;;;589.33;561.87;;;12.40;99.90;;;;;;5019974;28;20490;-82
2022/05/17 04:14:43;;;;;;;535.17;510.67;;;12.50;99.90;;;;;;5019341;28;20466;-82
2022/05/17 04:17:10;;;;;;;494.73;472.30;;;12.60;99.90;;;;;;5019188;28;20453;-82
2022/05/17 04:19:37;;;;;;;457.27;437.47;;;12.80;99.90;;;;;;5017949;28;20461;-81
2022/05/17 04:22:09;;;;;;;415.40;397.47;;;12.80;99.90;;;;;;5019754;28;20449;-82
2022/05/17 04:24:41;;;;;;;399.60;383.23;;;12.90;99.90;;;;;;5019314;28;20484;-82
2022/05/17 04:27:08;;;;;;;375.13;360.03;;;13.00;99.90;;;;;;5018774;28;20458;-82
2022/05/17 04:29:34;;;;;;;358.10;343.80;;;13.20;99.90;;;;;;5017010;28;20984;-82
2022/05/17 04:32:03;;;;;;;324.13;311.17;;;13.30;99.90;;;;;;5018858;28;20479;-82
2022/05/17 04:34:31;;;;;;;327.40;314.00;;;13.40;99.90;;;;;;5019749;28;20477;-82
2022/05/17 04:36:58;;;;;;;290.90;279.50;;;13.50;99.90;;;;;;5019764;28;20468;-82
2022/05/17 04:39:24;;;;;;;290.03;279.07;;;13.70;99.90;;;;;;5018851;28;20457;-82
2022/05/17 04:41:51;;;;;;;274.07;262.97;;;13.80;99.90;;;;;;5018417;28;20453;-82
2022/05/17 04:44:21;;;;;;;233.50;225.40;;;13.90;99.90;;;;;;5019980;28;20473;-82
2022/05/17 04:46:50;;;;;;;231.00;223.00;;;14.00;99.90;;;;;;5020149;28;20457;-82
2022/05/17 04:49:25;;;;;;;217.93;209.90;;;14.10;99.90;;;;;;5020056;28;20489;-83
2022/05/17 04:51:57;;;;;;;194.83;187.87;;;14.30;99.90;;;;;;5019193;28;20533;-81
2022/05/17 04:54:24;;;;;;;160.50;154.63;;;14.30;99.90;;;;;;5018861;28;20508;-82
2022/05/17 04:56:53;;;;;;;148.67;142.43;;;14.40;99.90;;;;;;5019773;28;20449;-82
2022/05/17 04:59:20;;;;;;;148.20;142.50;;;14.50;99.90;;;;;;5017388;28;20471;-81
2022/05/17 05:01:54;;;;;;;154.07;148.03;;;14.60;99.90;;;;;;5017827;28;20457;-82
2022/05/17 05:04:22;;;;;;;145.33;139.67;;;14.80;99.90;;;;;;5018704;28;20496;-81
2022/05/17 05:06:49;;;;;;;135.77;130.40;;;14.80;99.90;;;;;;5018396;28;20455;-82
2022/05/17 05:09:16;;;;;;;133.13;128.23;;;14.90;99.90;;;;;;5018640;28;20449;-82
2022/05/17 05:11:43;;;;;;;125.60;120.70;;;14.90;99.90;;;;;;5019030;28;20525;-82
2022/05/17 05:14:10;;;;;;;125.53;120.47;;;14.90;99.90;;;;;;5018121;28;20476;-82
2022/05/17 05:16:37;;;;;;;123.93;119.33;;;14.80;99.90;;;;;;5017644;28;20958;-82
2022/05/17 05:19:04;;;;;;;124.83;120.13;;;14.90;99.90;;;;;;5017431;28;20548;-82
2022/05/17 05:21:32;;;;;;;125.03;120.17;;;15.00;99.90;;;;;;5017999;28;20549;-82
2022/05/17 05:24:00;;;;;;;159.40;153.50;;;15.10;99.90;;;;;;5016823;28;20559;-82
2022/05/17 05:26:29;;;;;;;140.13;134.77;;;15.20;99.90;;;;;;5016382;28;20496;-82
2022/05/17 05:28:56;;;;;;;100.43;96.43;;;15.20;99.90;;;;;;5016381;28;20493;-82
2022/05/17 05:31:23;;;;;;;95.57;91.87;;;15.30;99.90;;;;;;5016555;28;20835;-83
2022/05/17 05:33:49;;;;;;;77.13;73.67;;;15.40;99.90;;;;;;5016271;28;20481;-82
2022/05/17 05:36:16;;;;;;;79.40;76.20;;;15.50;99.90;;;;;;5015961;28;20835;-82
2022/05/17 05:38:44;;;;;;;103.70;99.90;;;15.50;99.90;;;;;;5014088;28;20459;-82
2022/05/17 05:41:12;;;;;;;95.13;90.87;;;15.60;99.90;;;;;;5015312;28;20453;-81
2022/05/17 05:43:38;;;;;;;54.20;51.80;;;15.60;99.90;;;;;;5015769;28;20470;-81
2022/05/17 05:46:06;;;;;;;44.33;42.23;;;15.50;99.90;;;;;;5014461;28;20453;-83
2022/05/17 05:48:33;;;;;;;47.37;44.97;;;15.60;99.90;;;;;;5014929;28;20876;-84
2022/05/17 05:51:00;;;;;;;36.53;34.53;;;15.70;99.90;;;;;;5015163;28;20458;-83
2022/05/17 05:56:06;;;;;;;26.50;25.00;;;16.00;99.90;;;;;;5001757;28;20455;-84
2022/05/17 05:58:38;;;;;;;13.63;12.23;;;16.30;99.90;;;;;;5004417;28;21017;-82
2022/05/17 06:01:05;;;;;;;9.17;7.70;;;16.80;99.90;;;;;;5000945;28;20483;-85
2022/05/17 06:03:32;;;;;;;8.40;5.80;;;17.10;97.60;;;;;;4998790;28;20453;-83
2022/05/17 06:05:59;;;;;;;12.70;5.77;;;17.50;94.10;;;;;;4998119;28;20888;-83
2022/05/17 06:08:26;;;;;;;11.93;6.50;;;17.90;92.30;;;;;;4998349;28;20459;-84
2022/05/17 06:10:53;;;;;;;13.50;6.47;;;18.00;91.60;;;;;;5000069;28;20464;-80
2022/05/17 06:13:22;;;;;;;11.13;5.07;;;18.30;88.00;;;;;;5001725;28;20480;-81
2022/05/17 06:15:51;;;;;;;12.03;5.80;;;18.80;86.60;;;;;;5001542;28;20539;-80
2022/05/17 06:18:18;;;;;;;9.00;5.63;;;19.20;80.90;;;;;;4999425;28;20466;-81
2022/05/17 06:20:49;;;;;;;17.20;5.50;;;19.40;75.80;;;;;;5003339;28;20452;-81
2022/05/17 06:23:16;;;;;;;8.23;4.60;;;19.60;72.90;;;;;;5004023;28;20518;-80
2022/05/17 06:25:43;;;;;;;13.57;4.83;;;19.60;72.10;;;;;;5005809;28;20474;-79
2022/05/17 06:28:09;;;;;;;9.93;5.20;;;19.30;72.40;;;;;;5004654;28;20979;-81
2022/05/17 06:30:38;;;;;;;13.13;5.10;;;19.50;71.40;;;;;;4996097;28;20460;-81
2022/05/17 06:33:08;;;;;;;8.13;5.17;;;19.20;69.40;;;;;;4997188;28;20477;-82
2022/05/17 06:35:35;;;;;;;13.03;5.50;;;19.10;72.10;;;;;;5001294;28;20475;-83
2022/05/17 06:38:02;;;;;;;9.90;5.30;;;19.20;74.70;;;;;;4998811;28;20732;-80
2022/05/17 06:40:28;;;;;;;9.47;6.07;;;19.20;74.30;;;;;;5001064;28;20958;-81
2022/05/17 06:42:55;;;;;;;12.63;5.87;;;19.10;73.60;;;;;;4999957;28;20454;-81
2022/05/17 06:45:22;;;;;;;11.60;5.47;;;19.30;76.10;;;;;;4999629;28;20842;-83
2022/05/17 06:47:50;;;;;;;15.00;6.00;;;19.20;74.40;;;;;;5001384;28;20463;-83
2022/05/17 06:50:17;;;;;;;12.80;6.77;;;19.40;73.50;;;;;;4998764;28;20468;-83
2022/05/17 06:52:44;;;;;;;15.50;6.70;;;19.50;73.40;;;;;;5000579;28;20455;-80
2022/05/17 06:55:11;;;;;;;11.10;5.07;;;19.80;74.90;;;;;;4999734;28;20492;-82
2022/05/17 06:57:40;;;;;;;8.60;4.97;;;20.10;69.70;;;;;;4999969;28;20458;-83
2022/05/17 07:00:09;;;;;;;11.70;5.80;;;20.50;68.10;;;;;;4999573;28;20453;-82
2022/05/17 07:02:36;;;;;;;10.67;5.47;;;20.70;64.90;;;;;;5000379;28;20550;-82
2022/05/17 07:05:05;;;;;;;7.63;4.53;;;20.70;58.80;;;;;;4999765;28;20481;-82
2022/05/17 07:07:32;;;;;;;10.23;5.53;;;20.90;59.20;;;;;;4999232;28;20461;-82
2022/05/17 07:15:28;;;;;;;9.23;5.00;;;21.10;55.30;;;;;;4999452;28;20459;-83
2022/05/17 07:17:55;;;;;;;14.90;5.00;;;21.10;54.20;;;;;;4999979;28;20459;-83
2022/05/17 07:20:23;;;;;;;9.87;4.77;;;21.40;54.50;;;;;;4999584;28;20467;-83
2022/05/17 07:22:50;;;;;;;21.27;6.00;;;21.40;52.50;;;;;;4999668;28;20460;-83
2022/05/17 07:25:16;;;;;;;14.80;4.70;;;21.20;53.90;;;;;;5003131;28;20477;-83
2022/05/17 07:27:43;;;;;;;12.23;5.33;;;21.80;54.90;;;;;;5000029;28;20456;-84
2022/05/17 07:30:11;;;;;;;11.50;5.30;;;22.10;49.80;;;;;;4997949;28;20487;-80
2022/05/17 07:32:38;;;;;;;12.67;5.10;;;22.40;46.60;;;;;;4998724;28;20453;-79
2022/05/17 07:35:06;;;;;;;10.27;5.60;;;22.50;46.70;;;;;;4998166;28;21052;-84
2022/05/17 07:37:35;;;;;;;7.53;5.00;;;22.80;45.80;;;;;;4998713;28;20475;-82
2022/05/17 07:40:02;;;;;;;9.30;4.93;;;22.80;42.70;;;;;;4998511;28;20454;-84
2022/05/17 07:42:29;;;;;;;8.30;4.83;;;22.90;43.40;;;;;;4999323;28;20519;-82
2022/05/17 07:44:56;;;;;;;9.87;4.40;;;22.90;41.30;;;;;;4997196;28;20476;-83
2022/05/17 07:47:22;;;;;;;15.77;5.80;;;23.20;41.00;;;;;;4998340;28;20451;-83
2022/05/17 07:49:49;;;;;;;13.73;5.03;;;23.40;40.50;;;;;;4995802;28;20565;-84
2022/05/17 07:52:16;;;;;;;17.50;5.40;;;23.50;39.40;;;;;;4999350;28;20537;-83
2022/05/17 07:54:44;;;;;;;11.00;5.27;;;23.40;38.50;;;;;;4998404;28;20496;-84
2022/05/17 07:57:11;;;;;;;12.43;5.80;;;23.70;38.50;;;;;;5004481;28;21028;-87
2022/05/17 07:59:38;;;;;;;17.80;5.30;;;23.90;38.20;;;;;;5001160;28;20458;-86
2022/05/17 08:02:06;;;;;;;16.10;5.80;;;23.90;34.20;;;;;;5002054;28;20470;-86
2022/05/17 08:04:33;;;;;;;18.87;5.73;;;24.20;33.30;;;;;;4999634;28;20469;-89
2022/05/17 08:07:00;;;;;;;13.53;5.00;;;24.30;30.00;;;;;;5002343;28;20471;-84
2022/05/17 08:09:27;;;;;;;15.10;5.60;;;24.10;30.00;;;;;;4998892;28;20454;-84
2022/05/17 08:11:55;;;;;;;9.40;4.63;;;24.50;31.60;;;;;;5001502;28;20465;-84
2022/05/17 08:14:22;;;;;;;12.37;6.10;;;24.70;30.40;;;;;;4999994;28;20492;-84
2022/05/17 08:16:49;;;;;;;11.63;4.87;;;25.00;27.80;;;;;;5000737;28;20460;-84
2022/05/17 08:19:17;;;;;;;9.20;5.50;;;25.20;28.10;;;;;;5000096;28;20464;-84
2022/05/17 08:21:44;;;;;;;12.10;5.73;;;25.10;26.10;;;;;;4999518;28;20817;-84
2022/05/17 08:24:11;;;;;;;10.37;5.63;;;25.30;26.50;;;;;;4999624;28;20478;-84
2022/05/17 08:29:23;;;;;;;10.77;5.37;;;25.10;27.50;;;;;;4999795;28;20429;-83
2022/05/17 08:34:30;;;;;;;8.20;4.63;;;25.10;24.40;;;;;;4999047;28;20866;-84
2022/05/17 08:36:57;;;;;;;10.67;5.67;;;25.00;23.90;;;;;;4999610;28;20465;-84
2022/05/17 08:39:26;;;;;;;10.00;4.80;;;25.00;25.70;;;;;;5000465;28;20450;-84
2022/05/17 08:41:55;;;;;;;17.30;6.23;;;24.80;23.70;;;;;;5000504;28;20485;-84
2022/05/17 08:44:36;;;;;;;9.77;4.80;;;24.80;24.10;;;;;;4998719;28;21081;-84
2022/05/17 08:47:06;;;;;;;10.50;5.13;;;25.20;25.50;;;;;;4999982;28;20445;-84
2022/05/17 08:49:39;;;;;;;14.40;6.10;;;25.90;23.80;;;;;;4999624;28;20514;-83
2022/05/17 08:52:09;;;;;;;14.93;5.37;;;26.60;20.30;;;;;;4998986;28;20442;-84
2022/05/17 08:54:40;;;;;;;10.43;4.90;;;26.60;17.90;;;;;;4998225;28;20539;-83
2022/05/17 08:57:16;;;;;;;11.20;4.23;;;26.50;17.40;;;;;;4997556;28;20969;-83
2022/05/17 08:59:46;;;;;;;10.37;4.60;;;26.40;18.10;;;;;;4999481;28;20438;-84
2022/05/17 09:02:18;;;;;;;12.80;4.20;;;26.30;17.00;;;;;;4999980;28;20457;-84
2022/05/17 09:05:02;;;;;;;7.40;3.20;;;26.30;15.60;;;;;;4999898;28;21071;-84
2022/05/17 09:07:35;;;;;;;9.60;3.40;;;26.00;16.70;;;;;;4999084;28;20442;-84
2022/05/17 09:10:07;;;;;;;12.07;4.33;;;26.30;14.60;;;;;;4998537;28;20552;-84
2022/05/17 09:12:40;;;;;;;9.20;3.40;;;26.10;13.90;;;;;;4999709;28;20466;-84
2022/05/17 09:15:11;;;;;;;16.90;3.00;;;26.20;14.40;;;;;;4999027;28;21021;-84
2022/05/17 09:17:40;;;;;;;8.70;3.30;;;26.40;11.20;;;;;;5000313;28;20439;-84
2022/05/17 09:20:10;;;;;;;7.90;2.97;;;26.10;13.20;;;;;;4998967;28;20468;-84
2022/05/17 09:22:37;;;;;;;6.47;2.10;;;26.30;11.50;;;;;;4980618;28;20504;-84
2022/05/17 09:25:16;;;;;;;10.30;2.87;;;27.00;10.40;;;;;;4999302;28;20515;-84
2022/05/17 09:27:49;;;;;;;10.03;2.90;;;26.90;9.20;;;;;;4999213;28;20471;-84
2022/05/17 09:30:32;;;;;;;11.07;2.70;;;26.90;9.90;;;;;;4998914;28;20438;-84
2022/05/17 09:33:02;;;;;;;6.80;2.50;;;27.00;8.20;;;;;;4998942;28;20442;-83
2022/05/17 09:35:29;;;;;;;11.40;3.37;;;27.60;8.20;;;;;;4999007;28;20482;-84
2022/05/17 09:37:59;;;;;;;11.23;2.73;;;28.50;5.40;;;;;;4998498;28;20465;-84
2022/05/17 09:40:29;;;;;;;10.87;2.57;;;28.50;5.60;;;;;;4997799;28;20460;-84
2022/05/17 09:43:04;;;;;;;7.83;3.00;;;29.10;2.50;;;;;;4998582;28;20852;-83
2022/05/17 09:45:55;;;;;;;8.20;2.87;;;28.70;2.30;;;;;;4999082;28;20473;-84
2022/05/17 09:48:32;;;;;;;7.23;2.53;;;28.20;2.00;;;;;;4998155;28;20484;-84
2022/05/17 09:53:46;;;;;;;6.60;2.80;;;29.10;3.30;;;;;;4996622;28;20476;-82
2022/05/17 09:56:16;;;;;;;6.03;2.97;;;28.70;3.50;;;;;;4992250;28;20462;-82
2022/05/17 09:58:44;;;;;;;10.77;3.40;;;28.40;5.40;;;;;;4992081;28;20492;-82
2022/05/17 10:01:16;;;;;;;12.43;2.60;;;28.60;4.40;;;;;;4992821;28;20856;-82
2022/05/17 10:03:45;;;;;;;7.70;1.87;;;28.50;5.00;;;;;;4992900;28;20458;-82
2022/05/17 10:06:16;;;;;;;7.07;2.77;;;28.40;2.80;;;;;;4993013;28;20432;-82
2022/05/17 10:08:47;;;;;;;7.93;2.67;;;27.80;3.80;;;;;;4991892;28;20457;-81
2022/05/17 10:11:18;;;;;;;10.50;2.60;;;27.90;5.60;;;;;;4992318;28;20450;-82
2022/05/17 10:14:22;;;;;;;8.17;2.47;;;28.00;4.60;;;;;;4992479;28;20465;-82
2022/05/17 10:16:55;;;;;;;8.33;2.40;;;27.60;3.80;;;;;;4962246;28;20476;-82
2022/05/17 10:19:36;;;;;;;9.57;2.50;;;28.00;3.90;;;;;;4991998;28;20457;-82
2022/05/17 10:22:09;;;;;;;10.77;2.67;;;27.20;2.80;;;;;;4992777;28;20571;-82
2022/05/17 10:24:43;;;;;;;7.80;2.20;;;27.30;3.40;;;;;;4992742;28;20466;-82
2022/05/17 10:27:17;;;;;;;7.33;2.60;;;27.30;4.60;;;;;;4992727;28;20450;-82
2022/05/17 10:29:47;;;;;;;7.93;2.07;;;27.40;2.90;;;;;;4991979;28;20450;-82
2022/05/17 10:32:23;;;;;;;6.53;1.70;;;27.50;1.60;;;;;;4992532;28;20450;-82
2022/05/17 10:34:55;;;;;;;6.20;2.10;;;27.80;1.50;;;;;;4992436;28;20868;-82
2022/05/17 10:37:26;;;;;;;5.80;2.27;;;28.10;1.00;;;;;;4992671;28;20458;-82
2022/05/17 10:39:58;;;;;;;10.87;2.20;;;28.10;1.00;;;;;;4991934;28;20474;-82
2022/05/17 10:42:27;;;;;;;5.17;1.50;;;28.40;1.00;;;;;;4993102;28;20465;-82
2022/05/17 10:44:56;;;;;;;10.73;2.03;;;28.60;1.00;;;;;;4992439;28;20478;-82
2022/05/17 10:47:33;;;;;;;7.13;2.00;;;28.80;1.00;;;;;;4992436;28;20457;-82
2022/05/17 10:50:15;;;;;;;6.57;2.30;;;28.90;1.00;;;;;;4991884;28;20432;-82
2022/05/17 10:52:55;;;;;;;6.73;1.40;;;29.30;1.00;;;;;;4992483;28;20453;-82
2022/05/17 10:55:29;;;;;;;6.37;1.90;;;28.60;1.00;;;;;;4991179;28;20513;-82
2022/05/17 10:58:00;;;;;;;6.63;1.83;;;28.20;1.00;;;;;;4992439;28;20458;-82
2022/05/17 11:00:33;;;;;;;6.23;1.63;;;28.20;1.00;;;;;;4991851;28;20673;-82
2022/05/17 11:03:18;;;;;;;6.00;2.33;;;28.30;1.00;;;;;;4992677;28;20817;-82
2022/05/17 11:06:00;;;;;;;5.03;1.80;;;28.30;1.00;;;;;;4992373;28;20520;-82
2022/05/17 11:08:37;;;;;;;8.47;2.30;;;28.10;1.00;;;;;;4991757;28;20457;-81
2022/05/17 11:11:17;;;;;;;6.50;2.20;;;28.20;1.00;;;;;;4992206;28;20453;-82
2022/05/17 11:13:50;;;;;;;6.53;2.50;;;28.10;1.00;;;;;;4992218;28;20454;-82
2022/05/17 11:16:23;;;;;;;7.87;2.10;;;28.20;1.00;;;;;;4992525;28;20489;-82
2022/05/17 11:18:56;;;;;;;7.80;2.10;;;28.40;1.00;;;;;;4991713;28;20487;-81
2022/05/17 11:21:27;;;;;;;8.47;2.40;;;28.20;1.00;;;;;;4995831;28;20464;-86
2022/05/17 11:23:57;;;;;;;8.53;3.30;;;28.00;1.00;;;;;;4997267;28;20481;-85
2022/05/17 11:27:03;;;;;;;5.57;2.00;;;28.00;1.00;;;;;;4997336;28;20464;-85
2022/05/17 11:29:59;;;;;;;8.50;2.80;;;27.70;1.00;;;;;;4995404;28;21017;-84
2022/05/17 11:32:29;;;;;;;6.50;2.30;;;27.40;1.30;;;;;;4995364;28;20460;-84
2022/05/17 11:34:59;;;;;;;8.50;2.57;;;27.30;2.30;;;;;;4994501;28;20487;-84
2022/05/17 11:37:46;;;;;;;9.17;3.87;;;27.30;1.50;;;;;;4995243;28;20458;-84
2022/05/17 11:40:32;;;;;;;7.37;3.90;;;27.20;1.40;;;;;;4985146;28;20465;-84
2022/05/17 11:45:50;;;;;;;7.87;2.30;;;26.80;3.20;;;;;;4995010;28;20452;-84
2022/05/17 11:48:19;;;;;;;12.03;2.80;;;27.10;3.90;;;;;;4994553;28;20458;-84
2022/05/17 11:50:58;;;;;;;7.93;2.10;;;27.40;4.00;;;;;;4995610;28;20890;-83
2022/05/17 11:53:40;;;;;;;5.67;2.73;;;27.90;1.80;;;;;;4994920;28;20828;-85
2022/05/17 12:08:58;;;;;;;6.93;1.73;;;30.30;1.00;;;;;;5011105;28;20512;-84
2022/05/17 12:11:47;;;;;;;6.97;2.80;;;30.90;1.00;;;;;;5017371;28;20460;-85
2022/05/17 12:14:32;;;;;;;8.17;2.50;;;30.20;1.00;;;;;;5018535;28;20461;-84
2022/05/17 12:17:11;;;;;;;9.30;2.37;;;30.10;1.00;;;;;;5019689;28;20452;-85
2022/05/17 12:20:11;;;;;;;6.47;2.40;;;30.30;1.00;;;;;;5016579;28;20496;-85
2022/05/17 12:23:14;;;;;;;6.43;2.10;;;30.30;1.00;;;;;;5017389;28;20457;-84
2022/05/17 12:26:12;;;;;;;5.93;1.90;;;29.80;1.00;;;;;;5016628;28;20522;-86
2022/05/17 12:28:56;;;;;;;11.87;2.93;;;30.20;1.00;;;;;;5019536;28;20445;-84
2022/05/17 12:31:39;;;;;;;5.97;2.00;;;29.80;1.00;;;;;;5017099;28;20461;-84
2022/05/17 12:34:36;;;;;;;7.73;2.30;;;30.20;1.00;;;;;;5016394;28;20540;-84
2022/05/17 12:43:35;;;;;;;7.87;1.87;;;30.40;1.00;;;;;;5016069;28;20452;-84
2022/05/17 12:46:15;;;;;;;6.90;1.70;;;30.40;1.00;;;;;;5015935;28;20485;-84
2022/05/17 12:48:49;;;;;;;6.70;2.07;;;31.00;1.00;;;;;;5015807;28;20419;-83
2022/05/17 12:51:24;;;;;;;6.40;1.60;;;31.70;1.00;;;;;;5015520;28;20460;-84
2022/05/17 12:54:03;;;;;;;9.20;1.70;;;32.10;1.00;;;;;;5016131;28;20875;-84
2022/05/17 12:56:53;;;;;;;7.30;1.77;;;31.30;1.00;;;;;;5014806;28;20441;-83
2022/05/17 12:59:32;;;;;;;7.43;2.17;;;31.20;1.00;;;;;;5013506;28;20976;-84
2022/05/17 13:02:02;;;;;;;7.17;2.10;;;31.60;1.00;;;;;;5015670;28;20462;-84
2022/05/17 13:04:36;;;;;;;5.60;1.90;;;32.60;1.00;;;;;;5015857;28;20496;-80
2022/05/17 13:07:14;;;;;;;7.70;1.60;;;33.30;1.00;;;;;;5015547;28;20804;-83
2022/05/17 13:10:01;;;;;;;5.57;2.10;;;34.00;1.00;;;;;;5015025;28;20453;-82
2022/05/17 13:12:33;;;;;;;7.40;2.00;;;33.30;1.00;;;;;;5015352;28;20446;-83
2022/05/17 13:15:04;;;;;;;5.10;1.67;;;34.20;1.00;;;;;;5015754;28;20474;-83
2022/05/17 13:17:34;;;;;;;16.30;2.13;;;34.90;1.00;;;;;;5014927;28;20822;-81
2022/05/17 13:20:10;;;;;;;6.73;1.63;;;35.30;1.00;;;;;;5014398;28;20436;-84
2022/05/17 13:23:00;;;;;;;5.87;1.60;;;35.70;1.00;;;;;;5015980;28;20510;-84